Ivalee, Alabama
Current Conditions -  °F | °C
As of 7:55 PM on Tuesday 25 Nov 2014 (Local Time) from KGAD Reporting Station
Clear Clear  
Wind Chill: 46°   Ceiling: Unl
Heat Index: 48°   Visibility: 10mi
Dew Point: 28°   Wind: 6mph
Humidity: 46%   Direction: 320°NW
Pressure: 30.11"   Gusts: NA
Location:  34.0771°N, 86.0689°W
Report Text: KGAD 260155Z 32005KT 10SM CLR 09/M02 A3011 RMK AO1
Loading
Personal Weather Stations






























Interactive Weather Map New forecast layout! Learn more

10-Day Weather Forecast

Advertisements
Track Severe Weather on mobile